sensor_id;sensor_type;location;lat;lon;timestamp;P1;durP1;ratioP1;P2;durP2;ratioP2
10082;SDS011;5080;48.528;8.078;2023-09-07T00:01:16;13.60;;;13.13;;
10082;SDS011;5080;48.528;8.078;2023-09-07T00:03:43;13.50;;;13.07;;
10082;SDS011;5080;48.528;8.078;2023-09-07T00:06:10;13.77;;;13.27;;
10082;SDS011;5080;48.528;8.078;2023-09-07T00:08:38;13.82;;;13.32;;
10082;SDS011;5080;48.528;8.078;2023-09-07T00:11:05;13.25;;;12.85;;
10082;SDS011;5080;48.528;8.078;2023-09-07T00:13:32;13.65;;;13.15;;
10082;SDS011;5080;48.528;8.078;2023-09-07T00:16:00;13.50;;;13.00;;
10082;SDS011;5080;48.528;8.078;2023-09-07T00:18:27;13.45;;;12.95;;
10082;SDS011;5080;48.528;8.078;2023-09-07T00:20:54;13.65;;;13.15;;
10082;SDS011;5080;48.528;8.078;2023-09-07T00:23:21;13.32;;;12.82;;
10082;SDS011;5080;48.528;8.078;2023-09-07T00:25:49;14.05;;;13.55;;
10082;SDS011;5080;48.528;8.078;2023-09-07T00:28:16;13.43;;;12.93;;
10082;SDS011;5080;48.528;8.078;2023-09-07T00:30:43;13.38;;;12.88;;
10082;SDS011;5080;48.528;8.078;2023-09-07T00:33:10;12.63;;;12.23;;
10082;SDS011;5080;48.528;8.078;2023-09-07T00:35:37;14.15;;;13.65;;
10082;SDS011;5080;48.528;8.078;2023-09-07T00:38:03;14.68;;;14.18;;
10082;SDS011;5080;48.528;8.078;2023-09-07T00:40:30;14.25;;;13.75;;
10082;SDS011;5080;48.528;8.078;2023-09-07T00:42:58;13.00;;;12.60;;
10082;SDS011;5080;48.528;8.078;2023-09-07T00:45:25;12.73;;;12.32;;
10082;SDS011;5080;48.528;8.078;2023-09-07T00:47:52;13.07;;;12.68;;
10082;SDS011;5080;48.528;8.078;2023-09-07T00:50:20;13.50;;;13.00;;
10082;SDS011;5080;48.528;8.078;2023-09-07T00:52:47;13.63;;;13.13;;
10082;SDS011;5080;48.528;8.078;2023-09-07T00:55:14;13.48;;;13.00;;
10082;SDS011;5080;48.528;8.078;2023-09-07T00:57:41;12.40;;;12.00;;
10082;SDS011;5080;48.528;8.078;2023-09-07T01:00:10;12.88;;;12.48;;
10082;SDS011;5080;48.528;8.078;2023-09-07T01:02:38;12.50;;;12.10;;
10082;SDS011;5080;48.528;8.078;2023-09-07T01:05:05;12.45;;;12.05;;
10082;SDS011;5080;48.528;8.078;2023-09-07T01:07:33;12.50;;;12.10;;
10082;SDS011;5080;48.528;8.078;2023-09-07T01:10:03;12.80;;;12.40;;
10082;SDS011;5080;48.528;8.078;2023-09-07T01:12:31;12.45;;;12.05;;
10082;SDS011;5080;48.528;8.078;2023-09-07T01:14:58;12.98;;;12.55;;
10082;SDS011;5080;48.528;8.078;2023-09-07T01:17:26;12.65;;;12.25;;
10082;SDS011;5080;48.528;8.078;2023-09-07T01:19:54;12.30;;;11.90;;
10082;SDS011;5080;48.528;8.078;2023-09-07T01:22:31;12.40;;;12.00;;
10082;SDS011;5080;48.528;8.078;2023-09-07T01:24:59;11.95;;;11.55;;
10082;SDS011;5080;48.528;8.078;2023-09-07T01:27:26;12.32;;;11.93;;
10082;SDS011;5080;48.528;8.078;2023-09-07T01:29:54;12.63;;;12.23;;
10082;SDS011;5080;48.528;8.078;2023-09-07T01:32:20;12.63;;;12.23;;
10082;SDS011;5080;48.528;8.078;2023-09-07T01:34:49;12.57;;;12.15;;
10082;SDS011;5080;48.528;8.078;2023-09-07T01:37:15;12.40;;;12.00;;
10082;SDS011;5080;48.528;8.078;2023-09-07T01:39:44;12.98;;;12.50;;
10082;SDS011;5080;48.528;8.078;2023-09-07T01:42:10;12.35;;;11.95;;
10082;SDS011;5080;48.528;8.078;2023-09-07T01:44:37;12.20;;;11.80;;
10082;SDS011;5080;48.528;8.078;2023-09-07T01:47:04;12.27;;;11.88;;
10082;SDS011;5080;48.528;8.078;2023-09-07T01:49:31;13.45;;;12.73;;
10082;SDS011;5080;48.528;8.078;2023-09-07T01:51:58;12.20;;;11.80;;
10082;SDS011;5080;48.528;8.078;2023-09-07T01:54:28;12.60;;;12.20;;
10082;SDS011;5080;48.528;8.078;2023-09-07T01:56:57;12.00;;;11.60;;
10082;SDS011;5080;48.528;8.078;2023-09-07T01:59:24;12.30;;;11.90;;
10082;SDS011;5080;48.528;8.078;2023-09-07T02:01:51;12.20;;;11.80;;
10082;SDS011;5080;48.528;8.078;2023-09-07T02:04:17;12.10;;;11.70;;
10082;SDS011;5080;48.528;8.078;2023-09-07T02:06:44;12.00;;;11.60;;
10082;SDS011;5080;48.528;8.078;2023-09-07T02:09:11;11.50;;;11.10;;
10082;SDS011;5080;48.528;8.078;2023-09-07T02:11:38;12.20;;;11.70;;
10082;SDS011;5080;48.528;8.078;2023-09-07T02:14:07;12.00;;;11.60;;
10082;SDS011;5080;48.528;8.078;2023-09-07T02:16:35;12.57;;;12.18;;
10082;SDS011;5080;48.528;8.078;2023-09-07T02:19:03;11.68;;;11.27;;
10082;SDS011;5080;48.528;8.078;2023-09-07T02:21:31;12.88;;;12.38;;
10082;SDS011;5080;48.528;8.078;2023-09-07T02:23:58;13.57;;;13.07;;
10082;SDS011;5080;48.528;8.078;2023-09-07T02:26:25;13.02;;;12.63;;
10082;SDS011;5080;48.528;8.078;2023-09-07T02:28:52;12.48;;;12.07;;
10082;SDS011;5080;48.528;8.078;2023-09-07T02:31:20;12.15;;;11.75;;
10082;SDS011;5080;48.528;8.078;2023-09-07T02:33:47;12.07;;;11.60;;
10082;SDS011;5080;48.528;8.078;2023-09-07T02:36:13;13.60;;;13.10;;
10082;SDS011;5080;48.528;8.078;2023-09-07T02:38:40;12.82;;;12.43;;
10082;SDS011;5080;48.528;8.078;2023-09-07T02:41:07;12.77;;;12.38;;
10082;SDS011;5080;48.528;8.078;2023-09-07T02:43:34;12.38;;;11.98;;
10082;SDS011;5080;48.528;8.078;2023-09-07T02:46:01;14.38;;;13.88;;
10082;SDS011;5080;48.528;8.078;2023-09-07T02:48:29;12.70;;;12.20;;
10082;SDS011;5080;48.528;8.078;2023-09-07T02:50:56;12.32;;;11.93;;
10082;SDS011;5080;48.528;8.078;2023-09-07T02:53:23;12.07;;;11.68;;
10082;SDS011;5080;48.528;8.078;2023-09-07T02:55:50;12.05;;;11.65;;
10082;SDS011;5080;48.528;8.078;2023-09-07T02:58:17;12.65;;;12.18;;
10082;SDS011;5080;48.528;8.078;2023-09-07T03:00:44;11.43;;;11.02;;
10082;SDS011;5080;48.528;8.078;2023-09-07T03:03:12;11.52;;;11.13;;
10082;SDS011;5080;48.528;8.078;2023-09-07T03:05:41;12.20;;;11.80;;
10082;SDS011;5080;48.528;8.078;2023-09-07T03:08:08;12.35;;;11.95;;
10082;SDS011;5080;48.528;8.078;2023-09-07T03:10:36;12.10;;;11.70;;
10082;SDS011;5080;48.528;8.078;2023-09-07T03:13:04;12.18;;;11.77;;
10082;SDS011;5080;48.528;8.078;2023-09-07T03:15:31;11.88;;;11.48;;
10082;SDS011;5080;48.528;8.078;2023-09-07T03:17:58;12.07;;;11.68;;
10082;SDS011;5080;48.528;8.078;2023-09-07T03:20:25;12.02;;;11.63;;
10082;SDS011;5080;48.528;8.078;2023-09-07T03:22:54;12.10;;;11.70;;
10082;SDS011;5080;48.528;8.078;2023-09-07T03:25:21;12.25;;;11.85;;
10082;SDS011;5080;48.528;8.078;2023-09-07T03:27:48;12.60;;;12.20;;
10082;SDS011;5080;48.528;8.078;2023-09-07T03:30:16;12.63;;;12.15;;
10082;SDS011;5080;48.528;8.078;2023-09-07T03:32:43;12.15;;;11.75;;
10082;SDS011;5080;48.528;8.078;2023-09-07T03:35:10;12.45;;;12.05;;
10082;SDS011;5080;48.528;8.078;2023-09-07T03:37:36;12.68;;;12.27;;
10082;SDS011;5080;48.528;8.078;2023-09-07T03:40:05;12.98;;;12.48;;
10082;SDS011;5080;48.528;8.078;2023-09-07T03:42:34;12.60;;;12.20;;
10082;SDS011;5080;48.528;8.078;2023-09-07T03:45:01;13.00;;;12.60;;
10082;SDS011;5080;48.528;8.078;2023-09-07T03:47:28;13.07;;;12.57;;
10082;SDS011;5080;48.528;8.078;2023-09-07T03:49:55;12.63;;;12.23;;
10082;SDS011;5080;48.528;8.078;2023-09-07T03:52:22;12.63;;;12.23;;
10082;SDS011;5080;48.528;8.078;2023-09-07T03:54:49;13.10;;;12.70;;
10082;SDS011;5080;48.528;8.078;2023-09-07T03:57:18;12.93;;;12.52;;
10082;SDS011;5080;48.528;8.078;2023-09-07T03:59:45;12.00;;;11.60;;
10082;SDS011;5080;48.528;8.078;2023-09-07T04:02:12;12.43;;;12.02;;
10082;SDS011;5080;48.528;8.078;2023-09-07T04:04:40;12.57;;;12.18;;
10082;SDS011;5080;48.528;8.078;2023-09-07T04:07:07;12.15;;;11.75;;
10082;SDS011;5080;48.528;8.078;2023-09-07T04:09:33;12.07;;;11.68;;
10082;SDS011;5080;48.528;8.078;2023-09-07T04:12:00;12.18;;;11.77;;
10082;SDS011;5080;48.528;8.078;2023-09-07T04:14:30;12.23;;;11.82;;
10082;SDS011;5080;48.528;8.078;2023-09-07T04:16:57;12.43;;;12.02;;
10082;SDS011;5080;48.528;8.078;2023-09-07T04:19:23;12.93;;;12.52;;
10082;SDS011;5080;48.528;8.078;2023-09-07T04:21:50;13.20;;;12.80;;
10082;SDS011;5080;48.528;8.078;2023-09-07T04:24:17;13.55;;;13.05;;
10082;SDS011;5080;48.528;8.078;2023-09-07T04:26:44;12.50;;;12.10;;
10082;SDS011;5080;48.528;8.078;2023-09-07T04:29:11;12.60;;;12.20;;
10082;SDS011;5080;48.528;8.078;2023-09-07T04:31:39;12.68;;;12.27;;
10082;SDS011;5080;48.528;8.078;2023-09-07T04:34:06;12.63;;;12.23;;
10082;SDS011;5080;48.528;8.078;2023-09-07T04:36:33;12.35;;;11.95;;
10082;SDS011;5080;48.528;8.078;2023-09-07T04:39:01;13.38;;;12.98;;
10082;SDS011;5080;48.528;8.078;2023-09-07T04:41:28;12.40;;;12.00;;
10082;SDS011;5080;48.528;8.078;2023-09-07T04:43:56;13.02;;;12.57;;
10082;SDS011;5080;48.528;8.078;2023-09-07T04:46:23;12.32;;;11.82;;
10082;SDS011;5080;48.528;8.078;2023-09-07T04:48:51;12.82;;;12.43;;
10082;SDS011;5080;48.528;8.078;2023-09-07T04:51:18;12.65;;;12.25;;
10082;SDS011;5080;48.528;8.078;2023-09-07T04:53:47;13.90;;;13.40;;
10082;SDS011;5080;48.528;8.078;2023-09-07T04:56:13;13.55;;;12.95;;
10082;SDS011;5080;48.528;8.078;2023-09-07T04:58:41;12.88;;;12.48;;
10082;SDS011;5080;48.528;8.078;2023-09-07T05:01:09;14.00;;;13.50;;
10082;SDS011;5080;48.528;8.078;2023-09-07T05:03:37;14.02;;;13.52;;
10082;SDS011;5080;48.528;8.078;2023-09-07T05:06:06;13.93;;;13.43;;
10082;SDS011;5080;48.528;8.078;2023-09-07T05:08:33;14.02;;;13.52;;
10082;SDS011;5080;48.528;8.078;2023-09-07T05:11:01;13.52;;;13.02;;
10082;SDS011;5080;48.528;8.078;2023-09-07T05:13:28;13.63;;;13.13;;
10082;SDS011;5080;48.528;8.078;2023-09-07T05:15:55;13.32;;;12.93;;
10082;SDS011;5080;48.528;8.078;2023-09-07T05:18:24;13.82;;;13.32;;
10082;SDS011;5080;48.528;8.078;2023-09-07T05:20:51;13.52;;;13.02;;
10082;SDS011;5080;48.528;8.078;2023-09-07T05:23:19;13.23;;;12.63;;
10082;SDS011;5080;48.528;8.078;2023-09-07T05:25:46;13.02;;;12.52;;
10082;SDS011;5080;48.528;8.078;2023-09-07T05:28:15;12.73;;;12.33;;
10082;SDS011;5080;48.528;8.078;2023-09-07T05:30:43;14.05;;;13.55;;
10082;SDS011;5080;48.528;8.078;2023-09-07T05:33:10;13.85;;;13.35;;
10082;SDS011;5080;48.528;8.078;2023-09-07T05:35:38;12.82;;;12.43;;
10082;SDS011;5080;48.528;8.078;2023-09-07T05:38:05;13.77;;;13.27;;
10082;SDS011;5080;48.528;8.078;2023-09-07T05:40:34;14.02;;;13.52;;
10082;SDS011;5080;48.528;8.078;2023-09-07T05:43:02;14.25;;;13.75;;
10082;SDS011;5080;48.528;8.078;2023-09-07T05:45:29;13.82;;;13.32;;
10082;SDS011;5080;48.528;8.078;2023-09-07T05:47:57;13.93;;;13.43;;
10082;SDS011;5080;48.528;8.078;2023-09-07T05:50:23;14.48;;;13.98;;
10082;SDS011;5080;48.528;8.078;2023-09-07T05:52:50;17.35;;;16.67;;
10082;SDS011;5080;48.528;8.078;2023-09-07T05:55:17;16.10;;;15.50;;
10082;SDS011;5080;48.528;8.078;2023-09-07T05:57:45;15.37;;;14.77;;
10082;SDS011;5080;48.528;8.078;2023-09-07T06:00:13;15.55;;;15.05;;
10082;SDS011;5080;48.528;8.078;2023-09-07T06:02:42;16.55;;;15.95;;
10082;SDS011;5080;48.528;8.078;2023-09-07T06:05:09;14.77;;;14.27;;
10082;SDS011;5080;48.528;8.078;2023-09-07T06:07:36;15.73;;;15.18;;
10082;SDS011;5080;48.528;8.078;2023-09-07T06:10:03;15.13;;;14.63;;
10082;SDS011;5080;48.528;8.078;2023-09-07T06:12:31;15.00;;;14.48;;
10082;SDS011;5080;48.528;8.078;2023-09-07T06:14:59;15.95;;;15.35;;
10082;SDS011;5080;48.528;8.078;2023-09-07T06:17:26;15.57;;;15.05;;
10082;SDS011;5080;48.528;8.078;2023-09-07T06:19:53;16.52;;;15.93;;
10082;SDS011;5080;48.528;8.078;2023-09-07T06:22:20;14.90;;;14.38;;
10082;SDS011;5080;48.528;8.078;2023-09-07T06:24:47;17.10;;;16.50;;
10082;SDS011;5080;48.528;8.078;2023-09-07T06:27:13;16.55;;;15.98;;
10082;SDS011;5080;48.528;8.078;2023-09-07T06:29:40;15.02;;;14.43;;
10082;SDS011;5080;48.528;8.078;2023-09-07T06:32:08;16.92;;;16.35;;
10082;SDS011;5080;48.528;8.078;2023-09-07T06:34:35;18.08;;;17.42;;
10082;SDS011;5080;48.528;8.078;2023-09-07T06:37:02;15.43;;;14.85;;
10082;SDS011;5080;48.528;8.078;2023-09-07T06:39:31;16.33;;;15.73;;
10082;SDS011;5080;48.528;8.078;2023-09-07T06:41:59;19.17;;;18.48;;
10082;SDS011;5080;48.528;8.078;2023-09-07T06:44:25;17.58;;;16.95;;
10082;SDS011;5080;48.528;8.078;2023-09-07T06:46:52;17.30;;;16.70;;
10082;SDS011;5080;48.528;8.078;2023-09-07T06:49:21;20.33;;;19.60;;
10082;SDS011;5080;48.528;8.078;2023-09-07T06:51:47;14.98;;;14.48;;
10082;SDS011;5080;48.528;8.078;2023-09-07T06:54:14;14.47;;;13.87;;
10082;SDS011;5080;48.528;8.078;2023-09-07T06:56:41;15.73;;;15.18;;
10082;SDS011;5080;48.528;8.078;2023-09-07T06:59:08;15.63;;;15.02;;
10082;SDS011;5080;48.528;8.078;2023-09-07T07:01:35;15.50;;;14.98;;
10082;SDS011;5080;48.528;8.078;2023-09-07T07:04:01;15.68;;;15.13;;
10082;SDS011;5080;48.528;8.078;2023-09-07T07:06:30;16.90;;;16.30;;
10082;SDS011;5080;48.528;8.078;2023-09-07T07:08:57;15.93;;;15.32;;
10082;SDS011;5080;48.528;8.078;2023-09-07T07:11:23;16.58;;;15.98;;
10082;SDS011;5080;48.528;8.078;2023-09-07T07:13:50;16.52;;;15.93;;
10082;SDS011;5080;48.528;8.078;2023-09-07T07:16:17;16.00;;;15.48;;
10082;SDS011;5080;48.528;8.078;2023-09-07T07:18:44;15.63;;;15.02;;
10082;SDS011;5080;48.528;8.078;2023-09-07T07:21:11;15.52;;;15.02;;
10082;SDS011;5080;48.528;8.078;2023-09-07T07:23:39;14.40;;;13.90;;
10082;SDS011;5080;48.528;8.078;2023-09-07T07:26:06;16.27;;;15.73;;
10082;SDS011;5080;48.528;8.078;2023-09-07T07:28:33;14.88;;;14.38;;
10082;SDS011;5080;48.528;8.078;2023-09-07T07:31:06;15.27;;;14.68;;
10082;SDS011;5080;48.528;8.078;2023-09-07T07:33:33;14.20;;;13.70;;
10082;SDS011;5080;48.528;8.078;2023-09-07T07:36:00;13.63;;;13.13;;
10082;SDS011;5080;48.528;8.078;2023-09-07T07:38:27;15.57;;;15.02;;
10082;SDS011;5080;48.528;8.078;2023-09-07T07:40:55;14.90;;;14.40;;
10082;SDS011;5080;48.528;8.078;2023-09-07T07:43:22;14.48;;;13.98;;
10082;SDS011;5080;48.528;8.078;2023-09-07T07:45:49;14.45;;;13.95;;
10082;SDS011;5080;48.528;8.078;2023-09-07T07:48:17;15.30;;;14.80;;
10082;SDS011;5080;48.528;8.078;2023-09-07T07:50:45;15.60;;;15.10;;
10082;SDS011;5080;48.528;8.078;2023-09-07T07:53:12;15.57;;;14.98;;
10082;SDS011;5080;48.528;8.078;2023-09-07T07:55:39;15.73;;;15.23;;
10082;SDS011;5080;48.528;8.078;2023-09-07T07:58:08;15.27;;;14.68;;
10082;SDS011;5080;48.528;8.078;2023-09-07T08:00:35;14.85;;;14.35;;
10082;SDS011;5080;48.528;8.078;2023-09-07T08:03:03;14.98;;;14.48;;
10082;SDS011;5080;48.528;8.078;2023-09-07T08:05:32;15.60;;;15.10;;
10082;SDS011;5080;48.528;8.078;2023-09-07T08:07:59;15.85;;;15.25;;
10082;SDS011;5080;48.528;8.078;2023-09-07T08:10:26;14.90;;;14.40;;
10082;SDS011;5080;48.528;8.078;2023-09-07T08:12:53;16.00;;;15.40;;
10082;SDS011;5080;48.528;8.078;2023-09-07T08:15:22;16.75;;;16.15;;
10082;SDS011;5080;48.528;8.078;2023-09-07T08:17:50;16.13;;;15.52;;
10082;SDS011;5080;48.528;8.078;2023-09-07T08:20:17;16.33;;;15.73;;
10082;SDS011;5080;48.528;8.078;2023-09-07T08:22:44;17.10;;;16.50;;
10082;SDS011;5080;48.528;8.078;2023-09-07T08:25:11;19.63;;;18.92;;
10082;SDS011;5080;48.528;8.078;2023-09-07T08:27:39;16.67;;;15.98;;
10082;SDS011;5080;48.528;8.078;2023-09-07T08:30:11;16.85;;;16.25;;
10082;SDS011;5080;48.528;8.078;2023-09-07T08:32:42;16.50;;;15.90;;
10082;SDS011;5080;48.528;8.078;2023-09-07T08:35:09;19.30;;;18.60;;
10082;SDS011;5080;48.528;8.078;2023-09-07T08:37:38;16.98;;;16.38;;
10082;SDS011;5080;48.528;8.078;2023-09-07T08:40:05;19.60;;;18.90;;
10082;SDS011;5080;48.528;8.078;2023-09-07T08:42:33;18.50;;;17.90;;
10082;SDS011;5080;48.528;8.078;2023-09-07T08:45:02;17.73;;;17.13;;
10082;SDS011;5080;48.528;8.078;2023-09-07T08:47:31;17.30;;;16.70;;
10082;SDS011;5080;48.528;8.078;2023-09-07T08:50:01;17.08;;;16.48;;
10082;SDS011;5080;48.528;8.078;2023-09-07T08:52:31;17.10;;;16.50;;
10082;SDS011;5080;48.528;8.078;2023-09-07T08:54:58;16.15;;;15.55;;
10082;SDS011;5080;48.528;8.078;2023-09-07T08:57:26;17.85;;;17.25;;
10082;SDS011;5080;48.528;8.078;2023-09-07T08:59:55;16.75;;;16.15;;
10082;SDS011;5080;48.528;8.078;2023-09-07T09:02:22;16.10;;;15.50;;
10082;SDS011;5080;48.528;8.078;2023-09-07T09:04:50;14.35;;;13.85;;
10082;SDS011;5080;48.528;8.078;2023-09-07T09:07:18;20.63;;;19.83;;
10082;SDS011;5080;48.528;8.078;2023-09-07T09:09:46;15.82;;;15.32;;
10082;SDS011;5080;48.528;8.078;2023-09-07T09:12:13;15.52;;;14.98;;
10082;SDS011;5080;48.528;8.078;2023-09-07T09:14:41;15.80;;;15.30;;
10082;SDS011;5080;48.528;8.078;2023-09-07T09:17:10;13.80;;;13.30;;
10082;SDS011;5080;48.528;8.078;2023-09-07T09:19:39;14.68;;;14.18;;
10082;SDS011;5080;48.528;8.078;2023-09-07T09:22:07;14.77;;;14.27;;
10082;SDS011;5080;48.528;8.078;2023-09-07T09:24:35;15.00;;;14.50;;
10082;SDS011;5080;48.528;8.078;2023-09-07T09:27:02;19.38;;;18.65;;
10082;SDS011;5080;48.528;8.078;2023-09-07T09:29:31;16.15;;;15.55;;
10082;SDS011;5080;48.528;8.078;2023-09-07T09:31:59;16.50;;;15.90;;
10082;SDS011;5080;48.528;8.078;2023-09-07T09:34:30;13.77;;;13.27;;
10082;SDS011;5080;48.528;8.078;2023-09-07T09:36:59;13.93;;;13.38;;
10082;SDS011;5080;48.528;8.078;2023-09-07T09:39:27;16.67;;;16.08;;
10082;SDS011;5080;48.528;8.078;2023-09-07T09:41:55;15.38;;;14.77;;
10082;SDS011;5080;48.528;8.078;2023-09-07T09:44:23;14.57;;;14.07;;
10082;SDS011;5080;48.528;8.078;2023-09-07T09:46:51;15.38;;;14.88;;
10082;SDS011;5080;48.528;8.078;2023-09-07T09:49:19;16.27;;;15.68;;
10082;SDS011;5080;48.528;8.078;2023-09-07T09:51:47;14.65;;;14.13;;
10082;SDS011;5080;48.528;8.078;2023-09-07T09:54:16;14.68;;;14.18;;
10082;SDS011;5080;48.528;8.078;2023-09-07T09:56:43;14.27;;;13.77;;
10082;SDS011;5080;48.528;8.078;2023-09-07T09:59:11;15.15;;;14.55;;
10082;SDS011;5080;48.528;8.078;2023-09-07T10:01:42;14.40;;;13.90;;
10082;SDS011;5080;48.528;8.078;2023-09-07T10:04:12;14.25;;;13.75;;
10082;SDS011;5080;48.528;8.078;2023-09-07T10:06:49;15.02;;;14.52;;
10082;SDS011;5080;48.528;8.078;2023-09-07T10:09:17;15.50;;;15.00;;
10082;SDS011;5080;48.528;8.078;2023-09-07T10:11:50;15.00;;;14.50;;
10082;SDS011;5080;48.528;8.078;2023-09-07T10:14:19;14.60;;;14.10;;
10082;SDS011;5080;48.528;8.078;2023-09-07T10:16:47;16.80;;;16.20;;
10082;SDS011;5080;48.528;8.078;2023-09-07T10:19:17;16.50;;;15.90;;
10082;SDS011;5080;48.528;8.078;2023-09-07T10:21:44;16.38;;;15.77;;
10082;SDS011;5080;48.528;8.078;2023-09-07T10:24:11;22.08;;;21.30;;
10082;SDS011;5080;48.528;8.078;2023-09-07T10:26:55;17.08;;;16.48;;
10082;SDS011;5080;48.528;8.078;2023-09-07T10:29:24;22.95;;;22.05;;
10082;SDS011;5080;48.528;8.078;2023-09-07T10:31:51;18.52;;;17.83;;
10082;SDS011;5080;48.528;8.078;2023-09-07T10:34:18;18.40;;;17.67;;
10082;SDS011;5080;48.528;8.078;2023-09-07T10:36:47;16.13;;;15.57;;
10082;SDS011;5080;48.528;8.078;2023-09-07T10:39:18;19.73;;;19.02;;
10082;SDS011;5080;48.528;8.078;2023-09-07T10:41:45;24.17;;;23.17;;
10082;SDS011;5080;48.528;8.078;2023-09-07T10:44:13;15.80;;;15.23;;
10082;SDS011;5080;48.528;8.078;2023-09-07T10:46:41;17.73;;;17.13;;
10082;SDS011;5080;48.528;8.078;2023-09-07T10:49:08;17.13;;;16.52;;
10082;SDS011;5080;48.528;8.078;2023-09-07T10:51:41;17.33;;;16.73;;
10082;SDS011;5080;48.528;8.078;2023-09-07T10:54:16;17.42;;;16.83;;
10082;SDS011;5080;48.528;8.078;2023-09-07T10:56:44;15.90;;;15.30;;
10082;SDS011;5080;48.528;8.078;2023-09-07T10:59:12;19.08;;;18.20;;
10082;SDS011;5080;48.528;8.078;2023-09-07T11:01:41;18.45;;;17.75;;
10082;SDS011;5080;48.528;8.078;2023-09-07T11:04:08;19.70;;;18.90;;
10082;SDS011;5080;48.528;8.078;2023-09-07T11:06:36;18.77;;;18.10;;
10082;SDS011;5080;48.528;8.078;2023-09-07T11:09:04;18.60;;;17.90;;
10082;SDS011;5080;48.528;8.078;2023-09-07T11:11:34;16.90;;;16.30;;
10082;SDS011;5080;48.528;8.078;2023-09-07T11:14:01;32.15;;;30.85;;
10082;SDS011;5080;48.528;8.078;2023-09-07T11:16:29;21.35;;;20.45;;
10082;SDS011;5080;48.528;8.078;2023-09-07T11:18:59;20.75;;;20.02;;
10082;SDS011;5080;48.528;8.078;2023-09-07T11:21:29;20.38;;;19.67;;
10082;SDS011;5080;48.528;8.078;2023-09-07T11:23:57;24.40;;;23.42;;
10082;SDS011;5080;48.528;8.078;2023-09-07T11:26:24;31.40;;;30.27;;
10082;SDS011;5080;48.528;8.078;2023-09-07T11:28:51;29.60;;;28.55;;
10082;SDS011;5080;48.528;8.078;2023-09-07T11:31:18;35.50;;;34.25;;
10082;SDS011;5080;48.528;8.078;2023-09-07T11:33:46;49.28;;;47.35;;
10082;SDS011;5080;48.528;8.078;2023-09-07T11:36:14;36.47;;;35.17;;
10082;SDS011;5080;48.528;8.078;2023-09-07T11:38:42;48.67;;;46.88;;
10082;SDS011;5080;48.528;8.078;2023-09-07T11:41:09;40.83;;;39.38;;
10082;SDS011;5080;48.528;8.078;2023-09-07T11:43:36;47.15;;;45.42;;
10082;SDS011;5080;48.528;8.078;2023-09-07T11:46:04;38.35;;;36.92;;
10082;SDS011;5080;48.528;8.078;2023-09-07T11:48:31;51.08;;;49.13;;
10082;SDS011;5080;48.528;8.078;2023-09-07T11:50:59;38.20;;;36.80;;
10082;SDS011;5080;48.528;8.078;2023-09-07T11:53:28;41.65;;;40.13;;
10082;SDS011;5080;48.528;8.078;2023-09-07T11:55:55;46.33;;;44.55;;
10082;SDS011;5080;48.528;8.078;2023-09-07T11:58:23;58.65;;;55.90;;
10082;SDS011;5080;48.528;8.078;2023-09-07T12:00:51;49.30;;;47.50;;
10082;SDS011;5080;48.528;8.078;2023-09-07T12:03:19;39.30;;;37.85;;
10082;SDS011;5080;48.528;8.078;2023-09-07T12:05:45;47.58;;;45.88;;
10082;SDS011;5080;48.528;8.078;2023-09-07T12:08:12;46.42;;;44.72;;
10082;SDS011;5080;48.528;8.078;2023-09-07T12:10:41;87.18;;;83.50;;
10082;SDS011;5080;48.528;8.078;2023-09-07T12:13:08;54.47;;;52.50;;
10082;SDS011;5080;48.528;8.078;2023-09-07T12:15:35;43.83;;;42.25;;
10082;SDS011;5080;48.528;8.078;2023-09-07T12:18:02;56.17;;;54.17;;
10082;SDS011;5080;48.528;8.078;2023-09-07T12:20:29;56.72;;;54.67;;
10082;SDS011;5080;48.528;8.078;2023-09-07T12:22:55;61.17;;;58.97;;
10082;SDS011;5080;48.528;8.078;2023-09-07T12:25:22;122.97;;;115.03;;
10082;SDS011;5080;48.528;8.078;2023-09-07T12:27:51;62.45;;;60.22;;
10082;SDS011;5080;48.528;8.078;2023-09-07T12:30:18;76.47;;;73.40;;
10082;SDS011;5080;48.528;8.078;2023-09-07T12:32:45;58.83;;;56.58;;
10082;SDS011;5080;48.528;8.078;2023-09-07T12:35:12;53.10;;;51.05;;
10082;SDS011;5080;48.528;8.078;2023-09-07T12:37:40;88.57;;;84.60;;
10082;SDS011;5080;48.528;8.078;2023-09-07T12:40:07;87.97;;;84.25;;
10082;SDS011;5080;48.528;8.078;2023-09-07T12:42:36;53.30;;;51.40;;
10082;SDS011;5080;48.528;8.078;2023-09-07T12:45:07;54.78;;;52.78;;
10082;SDS011;5080;48.528;8.078;2023-09-07T12:47:34;74.43;;;71.47;;
10082;SDS011;5080;48.528;8.078;2023-09-07T12:50:01;67.22;;;64.82;;
10082;SDS011;5080;48.528;8.078;2023-09-07T12:52:29;66.50;;;64.13;;
10082;SDS011;5080;48.528;8.078;2023-09-07T12:54:56;64.03;;;61.72;;
10082;SDS011;5080;48.528;8.078;2023-09-07T12:57:23;66.03;;;63.65;;
10082;SDS011;5080;48.528;8.078;2023-09-07T12:59:50;63.72;;;61.40;;
10082;SDS011;5080;48.528;8.078;2023-09-07T13:02:18;63.65;;;61.28;;
10082;SDS011;5080;48.528;8.078;2023-09-07T13:04:45;64.28;;;61.97;;
10082;SDS011;5080;48.528;8.078;2023-09-07T13:07:12;67.25;;;64.85;;
10082;SDS011;5080;48.528;8.078;2023-09-07T13:09:42;52.88;;;50.97;;
10082;SDS011;5080;48.528;8.078;2023-09-07T13:12:09;60.70;;;58.50;;
10082;SDS011;5080;48.528;8.078;2023-09-07T13:14:36;99.80;;;95.18;;
10082;SDS011;5080;48.528;8.078;2023-09-07T13:17:03;69.30;;;66.82;;
10082;SDS011;5080;48.528;8.078;2023-09-07T13:19:31;60.50;;;58.30;;
10082;SDS011;5080;48.528;8.078;2023-09-07T13:21:58;72.18;;;69.50;;
10082;SDS011;5080;48.528;8.078;2023-09-07T13:24:25;102.13;;;97.38;;
10082;SDS011;5080;48.528;8.078;2023-09-07T13:26:52;72.05;;;69.43;;
10082;SDS011;5080;48.528;8.078;2023-09-07T13:29:18;75.90;;;73.18;;
10082;SDS011;5080;48.528;8.078;2023-09-07T13:31:45;70.18;;;67.68;;
10082;SDS011;5080;48.528;8.078;2023-09-07T13:34:12;61.38;;;59.13;;
10082;SDS011;5080;48.528;8.078;2023-09-07T13:36:40;71.63;;;69.07;;
10082;SDS011;5080;48.528;8.078;2023-09-07T13:39:07;69.97;;;67.45;;
10082;SDS011;5080;48.528;8.078;2023-09-07T13:41:34;57.25;;;55.17;;
10082;SDS011;5080;48.528;8.078;2023-09-07T13:44:00;60.28;;;58.08;;
10082;SDS011;5080;48.528;8.078;2023-09-07T13:46:27;69.78;;;67.22;;
10082;SDS011;5080;48.528;8.078;2023-09-07T13:48:54;59.00;;;56.90;;
10082;SDS011;5080;48.528;8.078;2023-09-07T13:51:21;78.22;;;75.45;;
10082;SDS011;5080;48.528;8.078;2023-09-07T13:53:50;81.82;;;78.63;;
10082;SDS011;5080;48.528;8.078;2023-09-07T13:56:17;63.15;;;60.88;;
10082;SDS011;5080;48.528;8.078;2023-09-07T13:58:44;67.60;;;65.13;;
10082;SDS011;5080;48.528;8.078;2023-09-07T14:01:11;80.45;;;77.60;;
10082;SDS011;5080;48.528;8.078;2023-09-07T14:03:38;63.13;;;60.83;;
10082;SDS011;5080;48.528;8.078;2023-09-07T14:06:04;83.18;;;80.22;;
10082;SDS011;5080;48.528;8.078;2023-09-07T14:08:31;70.53;;;67.95;;
10082;SDS011;5080;48.528;8.078;2023-09-07T14:11:01;92.18;;;88.65;;
10082;SDS011;5080;48.528;8.078;2023-09-07T14:13:28;83.78;;;80.70;;
10082;SDS011;5080;48.528;8.078;2023-09-07T14:15:54;68.88;;;66.38;;
10082;SDS011;5080;48.528;8.078;2023-09-07T14:18:21;76.53;;;73.70;;
10082;SDS011;5080;48.528;8.078;2023-09-07T14:20:48;79.18;;;76.30;;
10082;SDS011;5080;48.528;8.078;2023-09-07T14:23:15;78.25;;;75.45;;
10082;SDS011;5080;48.528;8.078;2023-09-07T14:25:42;60.08;;;57.83;;
10082;SDS011;5080;48.528;8.078;2023-09-07T14:28:11;70.20;;;67.68;;
10082;SDS011;5080;48.528;8.078;2023-09-07T14:30:38;87.47;;;83.93;;
10082;SDS011;5080;48.528;8.078;2023-09-07T14:33:05;108.55;;;102.03;;
10082;SDS011;5080;48.528;8.078;2023-09-07T14:35:32;74.80;;;72.13;;